sensor_id;sensor_type;location;lat;lon;timestamp;temperature;humidity
52439;DHT22;73188;52.948;6.012;2024-02-23T00:01:44;12.40;99.90
52439;DHT22;73188;52.948;6.012;2024-02-23T00:12:10;12.40;99.90
52439;DHT22;73188;52.948;6.012;2024-02-23T00:22:37;12.00;99.90
52439;DHT22;73188;52.948;6.012;2024-02-23T00:33:04;11.90;99.90
52439;DHT22;73188;52.948;6.012;2024-02-23T00:43:30;11.70;99.90
52439;DHT22;73188;52.948;6.012;2024-02-23T00:53:55;11.70;99.90
52439;DHT22;73188;52.948;6.012;2024-02-23T01:04:21;11.80;99.90
52439;DHT22;73188;52.948;6.012;2024-02-23T01:14:47;11.90;99.90
52439;DHT22;73188;52.948;6.012;2024-02-23T01:25:14;12.20;99.90
52439;DHT22;73188;52.948;6.012;2024-02-23T01:35:41;12.50;99.90
52439;DHT22;73188;52.948;6.012;2024-02-23T01:46:06;12.60;99.90
52439;DHT22;73188;52.948;6.012;2024-02-23T01:56:33;12.50;99.90
52439;DHT22;73188;52.948;6.012;2024-02-23T02:06:59;12.40;99.90
52439;DHT22;73188;52.948;6.012;2024-02-23T02:17:26;12.10;99.90
52439;DHT22;73188;52.948;6.012;2024-02-23T02:27:52;11.90;99.90
52439;DHT22;73188;52.948;6.012;2024-02-23T02:38:18;11.90;99.90
52439;DHT22;73188;52.948;6.012;2024-02-23T02:48:44;11.80;99.90
52439;DHT22;73188;52.948;6.012;2024-02-23T02:59:10;11.70;99.90
52439;DHT22;73188;52.948;6.012;2024-02-23T03:09:36;11.50;99.90
52439;DHT22;73188;52.948;6.012;2024-02-23T03:20:02;11.40;99.90
52439;DHT22;73188;52.948;6.012;2024-02-23T03:30:34;11.30;99.90
52439;DHT22;73188;52.948;6.012;2024-02-23T03:41:00;11.20;99.90
52439;DHT22;73188;52.948;6.012;2024-02-23T03:51:26;11.20;99.90
52439;DHT22;73188;52.948;6.012;2024-02-23T04:01:52;11.10;99.90
52439;DHT22;73188;52.948;6.012;2024-02-23T04:12:18;11.10;99.90
52439;DHT22;73188;52.948;6.012;2024-02-23T04:22:45;11.10;99.90
52439;DHT22;73188;52.948;6.012;2024-02-23T04:33:11;11.10;99.90
52439;DHT22;73188;52.948;6.012;2024-02-23T04:43:37;11.00;99.90
52439;DHT22;73188;52.948;6.012;2024-02-23T04:54:03;10.90;99.90
52439;DHT22;73188;52.948;6.012;2024-02-23T05:04:29;11.20;99.90
52439;DHT22;73188;52.948;6.012;2024-02-23T05:14:54;11.10;99.90
52439;DHT22;73188;52.948;6.012;2024-02-23T05:25:20;11.00;99.90
52439;DHT22;73188;52.948;6.012;2024-02-23T05:35:47;11.00;99.90
52439;DHT22;73188;52.948;6.012;2024-02-23T05:46:16;11.20;99.90
52439;DHT22;73188;52.948;6.012;2024-02-23T05:56:41;11.30;99.90
52439;DHT22;73188;52.948;6.012;2024-02-23T06:07:09;11.30;99.90
52439;DHT22;73188;52.948;6.012;2024-02-23T06:17:35;11.20;99.90
52439;DHT22;73188;52.948;6.012;2024-02-23T06:28:02;11.10;99.90
52439;DHT22;73188;52.948;6.012;2024-02-23T06:38:28;11.10;99.90
52439;DHT22;73188;52.948;6.012;2024-02-23T06:48:54;11.10;99.90
52439;DHT22;73188;52.948;6.012;2024-02-23T06:59:20;11.20;99.90
52439;DHT22;73188;52.948;6.012;2024-02-23T07:09:45;11.10;99.90
52439;DHT22;73188;52.948;6.012;2024-02-23T07:20:11;11.10;99.90
52439;DHT22;73188;52.948;6.012;2024-02-23T07:30:37;11.30;99.90
52439;DHT22;73188;52.948;6.012;2024-02-23T07:41:03;11.50;99.90
52439;DHT22;73188;52.948;6.012;2024-02-23T07:51:29;11.50;99.90
52439;DHT22;73188;52.948;6.012;2024-02-23T08:01:54;11.50;99.90
52439;DHT22;73188;52.948;6.012;2024-02-23T08:12:21;11.50;99.90
52439;DHT22;73188;52.948;6.012;2024-02-23T08:22:47;11.70;99.90
52439;DHT22;73188;52.948;6.012;2024-02-23T08:33:12;11.70;99.90
52439;DHT22;73188;52.948;6.012;2024-02-23T08:43:38;11.70;99.90
52439;DHT22;73188;52.948;6.012;2024-02-23T08:54:04;11.70;99.90
52439;DHT22;73188;52.948;6.012;2024-02-23T09:04:31;11.80;99.90
52439;DHT22;73188;52.948;6.012;2024-02-23T09:14:58;11.90;99.90
52439;DHT22;73188;52.948;6.012;2024-02-23T09:25:23;11.90;99.90
52439;DHT22;73188;52.948;6.012;2024-02-23T09:35:49;12.00;99.90
52439;DHT22;73188;52.948;6.012;2024-02-23T09:46:16;12.50;99.90
52439;DHT22;73188;52.948;6.012;2024-02-23T09:56:42;12.50;99.90
52439;DHT22;73188;52.948;6.012;2024-02-23T10:07:09;12.20;99.90
52439;DHT22;73188;52.948;6.012;2024-02-23T10:17:35;12.30;99.90
52439;DHT22;73188;52.948;6.012;2024-02-23T10:28:05;12.30;99.90
52439;DHT22;73188;52.948;6.012;2024-02-23T10:38:32;12.30;99.90
52439;DHT22;73188;52.948;6.012;2024-02-23T10:48:59;12.20;99.90
52439;DHT22;73188;52.948;6.012;2024-02-23T10:59:26;12.10;99.90
52439;DHT22;73188;52.948;6.012;2024-02-23T11:09:52;12.30;99.90
52439;DHT22;73188;52.948;6.012;2024-02-23T11:20:20;12.40;99.90
52439;DHT22;73188;52.948;6.012;2024-02-23T11:30:50;12.40;99.90
52439;DHT22;73188;52.948;6.012;2024-02-23T11:41:17;12.60;99.90
52439;DHT22;73188;52.948;6.012;2024-02-23T11:51:44;12.60;99.90
52439;DHT22;73188;52.948;6.012;2024-02-23T12:02:10;12.70;99.90
52439;DHT22;73188;52.948;6.012;2024-02-23T12:12:36;12.80;99.90
52439;DHT22;73188;52.948;6.012;2024-02-23T12:23:02;12.90;99.90
52439;DHT22;73188;52.948;6.012;2024-02-23T12:33:32;13.20;99.90
52439;DHT22;73188;52.948;6.012;2024-02-23T12:43:59;13.30;99.90
52439;DHT22;73188;52.948;6.012;2024-02-23T12:54:25;13.60;99.90
52439;DHT22;73188;52.948;6.012;2024-02-23T13:04:51;13.90;99.90
52439;DHT22;73188;52.948;6.012;2024-02-23T13:15:17;13.80;99.90
52439;DHT22;73188;52.948;6.012;2024-02-23T13:25:43;14.50;99.90
52439;DHT22;73188;52.948;6.012;2024-02-23T13:36:10;14.00;99.90
52439;DHT22;73188;52.948;6.012;2024-02-23T13:46:38;14.10;99.90
52439;DHT22;73188;52.948;6.012;2024-02-23T13:57:04;14.30;99.90
52439;DHT22;73188;52.948;6.012;2024-02-23T14:07:30;14.00;99.90
52439;DHT22;73188;52.948;6.012;2024-02-23T14:17:56;13.80;99.90
52439;DHT22;73188;52.948;6.012;2024-02-23T14:28:22;13.50;99.90
52439;DHT22;73188;52.948;6.012;2024-02-23T14:38:47;13.20;99.90
52439;DHT22;73188;52.948;6.012;2024-02-23T14:49:13;13.10;99.90
52439;DHT22;73188;52.948;6.012;2024-02-23T14:59:39;13.50;99.90
52439;DHT22;73188;52.948;6.012;2024-02-23T15:10:11;13.50;99.90
52439;DHT22;73188;52.948;6.012;2024-02-23T15:20:37;13.50;99.90
52439;DHT22;73188;52.948;6.012;2024-02-23T15:31:03;13.40;99.90
52439;DHT22;73188;52.948;6.012;2024-02-23T15:41:29;13.30;99.90
52439;DHT22;73188;52.948;6.012;2024-02-23T15:51:56;13.20;99.90
52439;DHT22;73188;52.948;6.012;2024-02-23T16:02:22;13.10;99.90
52439;DHT22;73188;52.948;6.012;2024-02-23T16:12:49;13.10;99.90
52439;DHT22;73188;52.948;6.012;2024-02-23T16:23:18;13.10;99.90
52439;DHT22;73188;52.948;6.012;2024-02-23T16:33:44;13.00;99.90
52439;DHT22;73188;52.948;6.012;2024-02-23T16:44:09;12.90;99.90
52439;DHT22;73188;52.948;6.012;2024-02-23T16:54:36;12.90;99.90
52439;DHT22;73188;52.948;6.012;2024-02-23T17:05:02;12.90;99.90
52439;DHT22;73188;52.948;6.012;2024-02-23T17:15:28;12.70;99.90
52439;DHT22;73188;52.948;6.012;2024-02-23T17:25:54;12.50;99.90
52439;DHT22;73188;52.948;6.012;2024-02-23T17:36:20;12.50;99.90
52439;DHT22;73188;52.948;6.012;2024-02-23T17:46:46;12.40;99.90
52439;DHT22;73188;52.948;6.012;2024-02-23T17:57:14;12.50;99.90
52439;DHT22;73188;52.948;6.012;2024-02-23T18:07:40;12.50;99.90
52439;DHT22;73188;52.948;6.012;2024-02-23T18:18:06;12.40;99.90
52439;DHT22;73188;52.948;6.012;2024-02-23T18:28:32;12.20;99.90
52439;DHT22;73188;52.948;6.012;2024-02-23T18:39:02;12.10;99.90
52439;DHT22;73188;52.948;6.012;2024-02-23T18:49:28;11.90;99.90
52439;DHT22;73188;52.948;6.012;2024-02-23T18:59:57;11.90;99.90
52439;DHT22;73188;52.948;6.012;2024-02-23T19:10:22;12.10;99.90
52439;DHT22;73188;52.948;6.012;2024-02-23T19:20:48;12.20;99.90
52439;DHT22;73188;52.948;6.012;2024-02-23T19:31:14;12.30;99.90
52439;DHT22;73188;52.948;6.012;2024-02-23T19:41:44;12.30;99.90
52439;DHT22;73188;52.948;6.012;2024-02-23T19:52:10;12.30;99.90
52439;DHT22;73188;52.948;6.012;2024-02-23T20:02:39;12.30;99.90
52439;DHT22;73188;52.948;6.012;2024-02-23T20:13:04;12.30;99.90
52439;DHT22;73188;52.948;6.012;2024-02-23T20:23:30;12.30;99.90
52439;DHT22;73188;52.948;6.012;2024-02-23T20:33:56;12.10;99.90
52439;DHT22;73188;52.948;6.012;2024-02-23T20:44:22;11.90;99.90
52439;DHT22;73188;52.948;6.012;2024-02-23T20:54:48;11.90;99.90
52439;DHT22;73188;52.948;6.012;2024-02-23T21:05:14;11.90;99.90
52439;DHT22;73188;52.948;6.012;2024-02-23T21:15:41;12.00;99.90
52439;DHT22;73188;52.948;6.012;2024-02-23T21:26:06;11.90;99.90
52439;DHT22;73188;52.948;6.012;2024-02-23T21:36:32;11.90;99.90
52439;DHT22;73188;52.948;6.012;2024-02-23T21:46:58;11.90;99.90
52439;DHT22;73188;52.948;6.012;2024-02-23T21:57:24;12.00;99.90
52439;DHT22;73188;52.948;6.012;2024-02-23T22:07:50;12.10;99.90
52439;DHT22;73188;52.948;6.012;2024-02-23T22:18:16;12.20;99.90
52439;DHT22;73188;52.948;6.012;2024-02-23T22:28:42;12.20;99.90
52439;DHT22;73188;52.948;6.012;2024-02-23T22:39:08;12.30;99.90
52439;DHT22;73188;52.948;6.012;2024-02-23T22:49:37;12.30;99.90
52439;DHT22;73188;52.948;6.012;2024-02-23T23:00:03;12.30;99.90
52439;DHT22;73188;52.948;6.012;2024-02-23T23:10:29;12.20;99.90
52439;DHT22;73188;52.948;6.012;2024-02-23T23:20:55;12.10;99.90
52439;DHT22;73188;52.948;6.012;2024-02-23T23:31:21;12.00;99.90
52439;DHT22;73188;52.948;6.012;2024-02-23T23:41:48;12.20;99.90
52439;DHT22;73188;52.948;6.012;2024-02-23T23:52:14;12.20;99.90
